sensor_id;sensor_type;location;lat;lon;timestamp;temperature;humidity
57664;DHT22;43493;53.098;6.064;2023-02-19T00:01:26;9.40;99.90
57664;DHT22;43493;53.098;6.064;2023-02-19T00:03:58;9.40;99.90
57664;DHT22;43493;53.098;6.064;2023-02-19T00:06:25;9.40;99.90
57664;DHT22;43493;53.098;6.064;2023-02-19T00:08:52;9.30;99.90
57664;DHT22;43493;53.098;6.064;2023-02-19T00:11:20;9.30;99.90
57664;DHT22;43493;53.098;6.064;2023-02-19T00:13:48;9.30;99.90
57664;DHT22;43493;53.098;6.064;2023-02-19T00:16:20;9.30;99.90
57664;DHT22;43493;53.098;6.064;2023-02-19T00:18:47;9.30;99.90
57664;DHT22;43493;53.098;6.064;2023-02-19T00:21:13;9.30;99.90
57664;DHT22;43493;53.098;6.064;2023-02-19T00:23:39;9.30;99.90
57664;DHT22;43493;53.098;6.064;2023-02-19T00:26:07;9.40;99.90
57664;DHT22;43493;53.098;6.064;2023-02-19T00:28:33;9.30;99.90
57664;DHT22;43493;53.098;6.064;2023-02-19T00:31:23;9.30;99.90
57664;DHT22;43493;53.098;6.064;2023-02-19T00:33:52;9.30;99.90
57664;DHT22;43493;53.098;6.064;2023-02-19T00:36:18;9.30;99.90
57664;DHT22;43493;53.098;6.064;2023-02-19T00:38:44;9.30;99.90
57664;DHT22;43493;53.098;6.064;2023-02-19T00:41:11;9.30;99.90
57664;DHT22;43493;53.098;6.064;2023-02-19T00:43:51;9.30;99.90
57664;DHT22;43493;53.098;6.064;2023-02-19T00:46:19;9.30;99.90
57664;DHT22;43493;53.098;6.064;2023-02-19T00:48:46;9.30;99.90
57664;DHT22;43493;53.098;6.064;2023-02-19T00:51:12;9.30;99.90
57664;DHT22;43493;53.098;6.064;2023-02-19T00:53:38;9.30;99.90
57664;DHT22;43493;53.098;6.064;2023-02-19T00:56:04;9.30;99.90
57664;DHT22;43493;53.098;6.064;2023-02-19T00:58:31;9.30;99.90
57664;DHT22;43493;53.098;6.064;2023-02-19T01:00:56;9.40;99.90
57664;DHT22;43493;53.098;6.064;2023-02-19T01:03:22;9.30;99.90
57664;DHT22;43493;53.098;6.064;2023-02-19T01:05:49;9.30;99.90
57664;DHT22;43493;53.098;6.064;2023-02-19T01:08:15;9.30;99.90
57664;DHT22;43493;53.098;6.064;2023-02-19T01:10:41;9.30;99.90
57664;DHT22;43493;53.098;6.064;2023-02-19T01:13:07;9.30;99.90
57664;DHT22;43493;53.098;6.064;2023-02-19T01:15:33;9.30;99.90
57664;DHT22;43493;53.098;6.064;2023-02-19T01:17:59;9.30;99.90
57664;DHT22;43493;53.098;6.064;2023-02-19T01:20:24;9.30;99.90
57664;DHT22;43493;53.098;6.064;2023-02-19T01:22:51;9.30;99.90
57664;DHT22;43493;53.098;6.064;2023-02-19T01:25:17;9.20;99.90
57664;DHT22;43493;53.098;6.064;2023-02-19T01:27:43;9.20;99.90
57664;DHT22;43493;53.098;6.064;2023-02-19T01:30:09;9.20;99.90
57664;DHT22;43493;53.098;6.064;2023-02-19T01:32:34;9.20;99.90
57664;DHT22;43493;53.098;6.064;2023-02-19T01:35:00;9.20;99.90
57664;DHT22;43493;53.098;6.064;2023-02-19T01:37:26;9.20;99.90
57664;DHT22;43493;53.098;6.064;2023-02-19T01:39:51;9.20;99.90
57664;DHT22;43493;53.098;6.064;2023-02-19T01:42:17;9.20;99.90
57664;DHT22;43493;53.098;6.064;2023-02-19T01:47:14;9.20;99.90
57664;DHT22;43493;53.098;6.064;2023-02-19T01:49:44;9.10;99.90
57664;DHT22;43493;53.098;6.064;2023-02-19T01:52:34;9.10;99.90
57664;DHT22;43493;53.098;6.064;2023-02-19T01:55:02;9.10;99.90
57664;DHT22;43493;53.098;6.064;2023-02-19T01:57:34;9.10;99.90
57664;DHT22;43493;53.098;6.064;2023-02-19T02:00:05;9.10;99.90
57664;DHT22;43493;53.098;6.064;2023-02-19T02:02:32;9.10;99.90
57664;DHT22;43493;53.098;6.064;2023-02-19T02:04:58;9.10;99.90
57664;DHT22;43493;53.098;6.064;2023-02-19T02:07:25;9.10;99.90
57664;DHT22;43493;53.098;6.064;2023-02-19T02:10:10;9.10;99.90
57664;DHT22;43493;53.098;6.064;2023-02-19T02:12:45;9.10;99.90
57664;DHT22;43493;53.098;6.064;2023-02-19T02:15:11;9.10;99.90
57664;DHT22;43493;53.098;6.064;2023-02-19T02:18:01;9.10;99.90
57664;DHT22;43493;53.098;6.064;2023-02-19T02:24:36;9.10;99.90
57664;DHT22;43493;53.098;6.064;2023-02-19T02:35:26;9.00;99.90
57664;DHT22;43493;53.098;6.064;2023-02-19T02:37:55;9.00;99.90
57664;DHT22;43493;53.098;6.064;2023-02-19T02:40:21;9.00;99.90
57664;DHT22;43493;53.098;6.064;2023-02-19T02:42:47;9.00;99.90
57664;DHT22;43493;53.098;6.064;2023-02-19T02:45:29;9.00;99.90
57664;DHT22;43493;53.098;6.064;2023-02-19T02:53:12;9.00;99.90
57664;DHT22;43493;53.098;6.064;2023-02-19T02:55:58;9.00;99.90
57664;DHT22;43493;53.098;6.064;2023-02-19T02:58:25;9.00;99.90
57664;DHT22;43493;53.098;6.064;2023-02-19T03:00:56;9.00;99.90
57664;DHT22;43493;53.098;6.064;2023-02-19T03:03:45;8.90;99.90
57664;DHT22;43493;53.098;6.064;2023-02-19T03:06:15;8.90;99.90
57664;DHT22;43493;53.098;6.064;2023-02-19T03:08:52;9.00;99.90
57664;DHT22;43493;53.098;6.064;2023-02-19T03:11:20;8.90;99.90
57664;DHT22;43493;53.098;6.064;2023-02-19T03:14:19;9.00;99.90
57664;DHT22;43493;53.098;6.064;2023-02-19T03:17:14;8.90;99.90
57664;DHT22;43493;53.098;6.064;2023-02-19T03:20:03;8.90;99.90
57664;DHT22;43493;53.098;6.064;2023-02-19T03:22:33;8.90;99.90
57664;DHT22;43493;53.098;6.064;2023-02-19T03:25:08;8.90;99.90
57664;DHT22;43493;53.098;6.064;2023-02-19T03:27:56;8.90;99.90
57664;DHT22;43493;53.098;6.064;2023-02-19T03:30:27;8.80;99.90
57664;DHT22;43493;53.098;6.064;2023-02-19T03:33:07;8.70;99.90
57664;DHT22;43493;53.098;6.064;2023-02-19T03:35:40;8.60;99.90
57664;DHT22;43493;53.098;6.064;2023-02-19T03:38:36;8.60;99.90
57664;DHT22;43493;53.098;6.064;2023-02-19T03:41:13;8.40;99.90
57664;DHT22;43493;53.098;6.064;2023-02-19T03:43:48;8.30;99.90
57664;DHT22;43493;53.098;6.064;2023-02-19T03:48:58;8.20;99.90
57664;DHT22;43493;53.098;6.064;2023-02-19T03:56:42;8.00;99.90
57664;DHT22;43493;53.098;6.064;2023-02-19T03:59:19;7.90;99.90
57664;DHT22;43493;53.098;6.064;2023-02-19T04:01:53;7.90;99.90
57664;DHT22;43493;53.098;6.064;2023-02-19T04:04:53;7.80;99.90
57664;DHT22;43493;53.098;6.064;2023-02-19T04:07:21;7.70;99.90
57664;DHT22;43493;53.098;6.064;2023-02-19T04:09:49;7.70;99.90
57664;DHT22;43493;53.098;6.064;2023-02-19T04:12:16;7.60;99.90
57664;DHT22;43493;53.098;6.064;2023-02-19T04:14:53;7.60;99.90
57664;DHT22;43493;53.098;6.064;2023-02-19T04:20:27;7.40;99.90
57664;DHT22;43493;53.098;6.064;2023-02-19T04:22:55;7.40;99.90
57664;DHT22;43493;53.098;6.064;2023-02-19T04:25:22;7.40;99.90
57664;DHT22;43493;53.098;6.064;2023-02-19T04:27:48;7.40;99.90
57664;DHT22;43493;53.098;6.064;2023-02-19T04:30:14;7.40;99.90
57664;DHT22;43493;53.098;6.064;2023-02-19T04:32:40;7.40;99.90
57664;DHT22;43493;53.098;6.064;2023-02-19T04:35:06;7.40;99.90
57664;DHT22;43493;53.098;6.064;2023-02-19T04:37:32;7.40;99.90
57664;DHT22;43493;53.098;6.064;2023-02-19T04:39:58;7.40;99.90
57664;DHT22;43493;53.098;6.064;2023-02-19T04:42:23;7.30;99.90
57664;DHT22;43493;53.098;6.064;2023-02-19T04:44:49;7.30;99.90
57664;DHT22;43493;53.098;6.064;2023-02-19T04:47:15;7.30;99.90
57664;DHT22;43493;53.098;6.064;2023-02-19T04:49:44;7.30;99.90
57664;DHT22;43493;53.098;6.064;2023-02-19T04:52:10;7.30;99.90
57664;DHT22;43493;53.098;6.064;2023-02-19T04:54:36;7.30;99.90
57664;DHT22;43493;53.098;6.064;2023-02-19T04:57:01;7.20;99.90
57664;DHT22;43493;53.098;6.064;2023-02-19T04:59:27;7.20;99.90
57664;DHT22;43493;53.098;6.064;2023-02-19T05:01:53;7.20;99.90
57664;DHT22;43493;53.098;6.064;2023-02-19T05:04:19;7.10;99.90
57664;DHT22;43493;53.098;6.064;2023-02-19T05:06:44;7.10;99.90
57664;DHT22;43493;53.098;6.064;2023-02-19T05:09:10;7.10;99.90
57664;DHT22;43493;53.098;6.064;2023-02-19T05:11:36;7.00;99.90
57664;DHT22;43493;53.098;6.064;2023-02-19T05:14:02;7.00;99.90
57664;DHT22;43493;53.098;6.064;2023-02-19T05:16:27;7.00;99.90
57664;DHT22;43493;53.098;6.064;2023-02-19T05:18:53;7.00;99.90
57664;DHT22;43493;53.098;6.064;2023-02-19T05:21:19;6.90;99.90
57664;DHT22;43493;53.098;6.064;2023-02-19T05:23:45;6.90;99.90
57664;DHT22;43493;53.098;6.064;2023-02-19T05:26:14;6.90;99.90
57664;DHT22;43493;53.098;6.064;2023-02-19T05:28:43;6.90;99.90
57664;DHT22;43493;53.098;6.064;2023-02-19T05:31:10;6.90;99.90
57664;DHT22;43493;53.098;6.064;2023-02-19T05:33:36;6.90;99.90
57664;DHT22;43493;53.098;6.064;2023-02-19T05:36:07;6.80;99.90
57664;DHT22;43493;53.098;6.064;2023-02-19T05:38:34;6.80;99.90
57664;DHT22;43493;53.098;6.064;2023-02-19T05:43:37;6.80;99.90
57664;DHT22;43493;53.098;6.064;2023-02-19T05:46:03;6.80;99.90
57664;DHT22;43493;53.098;6.064;2023-02-19T05:48:29;6.70;99.90
57664;DHT22;43493;53.098;6.064;2023-02-19T05:51:03;6.70;99.90
57664;DHT22;43493;53.098;6.064;2023-02-19T05:53:29;6.70;99.90
57664;DHT22;43493;53.098;6.064;2023-02-19T05:55:55;6.70;99.90
57664;DHT22;43493;53.098;6.064;2023-02-19T05:58:21;6.70;99.90
57664;DHT22;43493;53.098;6.064;2023-02-19T06:00:47;6.70;99.90
57664;DHT22;43493;53.098;6.064;2023-02-19T06:03:13;6.70;99.90
57664;DHT22;43493;53.098;6.064;2023-02-19T06:05:38;6.70;99.90
57664;DHT22;43493;53.098;6.064;2023-02-19T06:08:04;6.70;99.90
57664;DHT22;43493;53.098;6.064;2023-02-19T06:10:30;6.70;99.90
57664;DHT22;43493;53.098;6.064;2023-02-19T06:12:56;6.60;99.90
57664;DHT22;43493;53.098;6.064;2023-02-19T06:15:22;6.50;99.90
57664;DHT22;43493;53.098;6.064;2023-02-19T06:17:48;6.50;99.90
57664;DHT22;43493;53.098;6.064;2023-02-19T06:20:14;6.50;99.90
57664;DHT22;43493;53.098;6.064;2023-02-19T06:22:39;6.50;99.90
57664;DHT22;43493;53.098;6.064;2023-02-19T06:25:05;6.50;99.90
57664;DHT22;43493;53.098;6.064;2023-02-19T06:27:32;6.50;99.90
57664;DHT22;43493;53.098;6.064;2023-02-19T06:29:58;6.50;99.90
57664;DHT22;43493;53.098;6.064;2023-02-19T06:32:24;6.50;99.90
57664;DHT22;43493;53.098;6.064;2023-02-19T06:34:50;6.50;99.90
57664;DHT22;43493;53.098;6.064;2023-02-19T06:37:15;6.50;99.90
57664;DHT22;43493;53.098;6.064;2023-02-19T06:39:41;6.50;99.90
57664;DHT22;43493;53.098;6.064;2023-02-19T06:42:08;6.50;99.90
57664;DHT22;43493;53.098;6.064;2023-02-19T06:44:34;6.50;99.90
57664;DHT22;43493;53.098;6.064;2023-02-19T06:46:59;6.50;99.90
57664;DHT22;43493;53.098;6.064;2023-02-19T06:49:25;6.50;99.90
57664;DHT22;43493;53.098;6.064;2023-02-19T06:51:51;6.50;99.90
57664;DHT22;43493;53.098;6.064;2023-02-19T06:54:16;6.50;99.90
57664;DHT22;43493;53.098;6.064;2023-02-19T06:56:42;6.50;99.90
57664;DHT22;43493;53.098;6.064;2023-02-19T06:59:12;6.50;99.90
57664;DHT22;43493;53.098;6.064;2023-02-19T07:01:39;6.50;99.90
57664;DHT22;43493;53.098;6.064;2023-02-19T07:04:06;6.40;99.90
57664;DHT22;43493;53.098;6.064;2023-02-19T07:06:32;6.50;99.90
57664;DHT22;43493;53.098;6.064;2023-02-19T07:08:59;6.40;99.90
57664;DHT22;43493;53.098;6.064;2023-02-19T07:11:25;6.50;99.90
57664;DHT22;43493;53.098;6.064;2023-02-19T07:13:55;6.40;99.90
57664;DHT22;43493;53.098;6.064;2023-02-19T07:16:21;6.40;99.90
57664;DHT22;43493;53.098;6.064;2023-02-19T07:18:47;6.50;99.90
57664;DHT22;43493;53.098;6.064;2023-02-19T07:21:14;6.40;99.90
57664;DHT22;43493;53.098;6.064;2023-02-19T07:23:41;6.40;99.90
57664;DHT22;43493;53.098;6.064;2023-02-19T07:26:12;6.40;99.90
57664;DHT22;43493;53.098;6.064;2023-02-19T07:28:46;6.40;99.90
57664;DHT22;43493;53.098;6.064;2023-02-19T07:31:13;6.40;99.90
57664;DHT22;43493;53.098;6.064;2023-02-19T07:33:41;6.40;99.90
57664;DHT22;43493;53.098;6.064;2023-02-19T07:36:07;6.30;99.90
57664;DHT22;43493;53.098;6.064;2023-02-19T07:38:33;6.30;99.90
57664;DHT22;43493;53.098;6.064;2023-02-19T07:41:00;6.30;99.90
57664;DHT22;43493;53.098;6.064;2023-02-19T07:43:28;6.20;99.90
57664;DHT22;43493;53.098;6.064;2023-02-19T07:45:54;6.20;99.90
57664;DHT22;43493;53.098;6.064;2023-02-19T07:48:20;6.20;99.90
57664;DHT22;43493;53.098;6.064;2023-02-19T07:50:53;6.20;99.90
57664;DHT22;43493;53.098;6.064;2023-02-19T07:53:20;6.10;99.90
57664;DHT22;43493;53.098;6.064;2023-02-19T07:55:46;6.20;99.90
57664;DHT22;43493;53.098;6.064;2023-02-19T07:58:12;6.20;99.90
57664;DHT22;43493;53.098;6.064;2023-02-19T08:00:38;6.20;99.90
57664;DHT22;43493;53.098;6.064;2023-02-19T08:03:03;6.20;99.90
57664;DHT22;43493;53.098;6.064;2023-02-19T08:05:36;6.30;99.90
57664;DHT22;43493;53.098;6.064;2023-02-19T08:08:05;6.30;99.90
57664;DHT22;43493;53.098;6.064;2023-02-19T08:10:31;6.30;99.90
57664;DHT22;43493;53.098;6.064;2023-02-19T08:13:16;6.30;99.90
57664;DHT22;43493;53.098;6.064;2023-02-19T08:15:45;6.40;99.90
57664;DHT22;43493;53.098;6.064;2023-02-19T08:18:12;6.40;99.90
57664;DHT22;43493;53.098;6.064;2023-02-19T08:20:39;6.50;99.90
57664;DHT22;43493;53.098;6.064;2023-02-19T08:23:04;6.50;99.90
57664;DHT22;43493;53.098;6.064;2023-02-19T08:25:30;6.50;99.90
57664;DHT22;43493;53.098;6.064;2023-02-19T08:27:56;6.60;99.90
57664;DHT22;43493;53.098;6.064;2023-02-19T08:30:25;6.60;99.90
57664;DHT22;43493;53.098;6.064;2023-02-19T08:32:51;6.70;99.90
57664;DHT22;43493;53.098;6.064;2023-02-19T08:35:17;6.70;99.90
57664;DHT22;43493;53.098;6.064;2023-02-19T08:37:42;6.80;99.90
57664;DHT22;43493;53.098;6.064;2023-02-19T08:40:09;6.80;99.90
57664;DHT22;43493;53.098;6.064;2023-02-19T08:42:34;6.80;99.90
57664;DHT22;43493;53.098;6.064;2023-02-19T08:45:00;6.90;99.90
57664;DHT22;43493;53.098;6.064;2023-02-19T08:47:26;6.90;99.90
57664;DHT22;43493;53.098;6.064;2023-02-19T08:49:52;7.00;99.90
57664;DHT22;43493;53.098;6.064;2023-02-19T08:52:17;7.10;99.90
57664;DHT22;43493;53.098;6.064;2023-02-19T08:54:43;7.10;99.90
57664;DHT22;43493;53.098;6.064;2023-02-19T08:57:09;7.10;99.90
57664;DHT22;43493;53.098;6.064;2023-02-19T08:59:34;7.10;99.90
57664;DHT22;43493;53.098;6.064;2023-02-19T09:02:00;7.20;99.90
57664;DHT22;43493;53.098;6.064;2023-02-19T09:04:27;7.20;99.90
57664;DHT22;43493;53.098;6.064;2023-02-19T09:06:53;7.20;99.90
57664;DHT22;43493;53.098;6.064;2023-02-19T09:09:19;7.20;99.90
57664;DHT22;43493;53.098;6.064;2023-02-19T09:11:44;7.30;99.90
57664;DHT22;43493;53.098;6.064;2023-02-19T09:14:10;7.30;99.90
57664;DHT22;43493;53.098;6.064;2023-02-19T09:16:36;7.40;99.90
57664;DHT22;43493;53.098;6.064;2023-02-19T09:19:03;7.40;99.90
57664;DHT22;43493;53.098;6.064;2023-02-19T09:21:29;7.50;99.90
57664;DHT22;43493;53.098;6.064;2023-02-19T09:23:55;7.60;99.90
57664;DHT22;43493;53.098;6.064;2023-02-19T09:26:21;7.70;99.90
57664;DHT22;43493;53.098;6.064;2023-02-19T09:28:47;7.70;99.90
57664;DHT22;43493;53.098;6.064;2023-02-19T09:31:14;7.70;99.90
57664;DHT22;43493;53.098;6.064;2023-02-19T09:33:44;7.70;99.90
57664;DHT22;43493;53.098;6.064;2023-02-19T09:36:11;7.70;99.90
57664;DHT22;43493;53.098;6.064;2023-02-19T09:38:36;7.60;99.90
57664;DHT22;43493;53.098;6.064;2023-02-19T09:41:13;7.70;99.90
57664;DHT22;43493;53.098;6.064;2023-02-19T09:43:40;7.60;99.90
57664;DHT22;43493;53.098;6.064;2023-02-19T09:46:21;7.70;99.90
57664;DHT22;43493;53.098;6.064;2023-02-19T09:48:48;7.70;99.90
57664;DHT22;43493;53.098;6.064;2023-02-19T09:51:15;7.70;99.90
57664;DHT22;43493;53.098;6.064;2023-02-19T09:53:43;7.80;99.90
57664;DHT22;43493;53.098;6.064;2023-02-19T09:56:10;7.90;99.90
57664;DHT22;43493;53.098;6.064;2023-02-19T09:58:48;7.90;99.90
57664;DHT22;43493;53.098;6.064;2023-02-19T10:01:14;8.00;99.90
57664;DHT22;43493;53.098;6.064;2023-02-19T10:03:47;8.00;99.90
57664;DHT22;43493;53.098;6.064;2023-02-19T10:06:18;8.00;99.90
57664;DHT22;43493;53.098;6.064;2023-02-19T10:08:47;8.00;99.90
57664;DHT22;43493;53.098;6.064;2023-02-19T10:11:15;8.00;99.90
57664;DHT22;43493;53.098;6.064;2023-02-19T10:13:44;7.90;99.90
57664;DHT22;43493;53.098;6.064;2023-02-19T10:16:14;7.90;99.90
57664;DHT22;43493;53.098;6.064;2023-02-19T10:18:43;7.90;99.90
57664;DHT22;43493;53.098;6.064;2023-02-19T10:21:15;8.00;99.90
57664;DHT22;43493;53.098;6.064;2023-02-19T10:23:42;7.90;99.90
57664;DHT22;43493;53.098;6.064;2023-02-19T10:26:08;8.00;99.90
57664;DHT22;43493;53.098;6.064;2023-02-19T10:28:34;8.10;99.90
57664;DHT22;43493;53.098;6.064;2023-02-19T10:31:02;8.30;99.90
57664;DHT22;43493;53.098;6.064;2023-02-19T10:33:29;8.40;99.90
57664;DHT22;43493;53.098;6.064;2023-02-19T10:35:57;8.60;99.90
57664;DHT22;43493;53.098;6.064;2023-02-19T10:38:38;8.70;99.90
57664;DHT22;43493;53.098;6.064;2023-02-19T10:41:11;8.80;99.90
57664;DHT22;43493;53.098;6.064;2023-02-19T10:43:43;8.80;99.90
57664;DHT22;43493;53.098;6.064;2023-02-19T10:46:24;8.80;99.90
57664;DHT22;43493;53.098;6.064;2023-02-19T10:48:54;8.80;99.90
57664;DHT22;43493;53.098;6.064;2023-02-19T10:51:33;8.80;99.90
57664;DHT22;43493;53.098;6.064;2023-02-19T10:54:19;8.80;99.90
57664;DHT22;43493;53.098;6.064;2023-02-19T10:56:48;8.80;99.90
57664;DHT22;43493;53.098;6.064;2023-02-19T11:02:16;8.80;99.90
57664;DHT22;43493;53.098;6.064;2023-02-19T11:07:50;8.80;99.90
57664;DHT22;43493;53.098;6.064;2023-02-19T11:10:39;8.80;99.90
57664;DHT22;43493;53.098;6.064;2023-02-19T11:13:13;8.80;99.90
57664;DHT22;43493;53.098;6.064;2023-02-19T11:15:40;8.90;99.90
57664;DHT22;43493;53.098;6.064;2023-02-19T11:18:21;9.00;99.90
57664;DHT22;43493;53.098;6.064;2023-02-19T11:20:50;8.90;99.90
57664;DHT22;43493;53.098;6.064;2023-02-19T11:23:42;8.90;99.90
57664;DHT22;43493;53.098;6.064;2023-02-19T11:26:20;8.80;99.90
57664;DHT22;43493;53.098;6.064;2023-02-19T11:29:00;8.90;99.90
57664;DHT22;43493;53.098;6.064;2023-02-19T11:31:28;8.90;99.90
57664;DHT22;43493;53.098;6.064;2023-02-19T11:34:26;8.90;99.90
57664;DHT22;43493;53.098;6.064;2023-02-19T11:37:14;8.80;99.90
57664;DHT22;43493;53.098;6.064;2023-02-19T11:39:49;8.80;99.90
57664;DHT22;43493;53.098;6.064;2023-02-19T11:42:23;8.70;99.90
57664;DHT22;43493;53.098;6.064;2023-02-19T11:50:32;8.90;99.90
57664;DHT22;43493;53.098;6.064;2023-02-19T11:53:20;8.90;99.90
57664;DHT22;43493;53.098;6.064;2023-02-19T12:01:25;8.90;99.90
57664;DHT22;43493;53.098;6.064;2023-02-19T12:09:46;9.00;99.90
57664;DHT22;43493;53.098;6.064;2023-02-19T12:15:12;9.00;99.90
57664;DHT22;43493;53.098;6.064;2023-02-19T12:37:26;9.30;99.90
57664;DHT22;43493;53.098;6.064;2023-02-19T12:45:28;9.30;99.90
57664;DHT22;43493;53.098;6.064;2023-02-19T12:51:01;9.20;99.90
57664;DHT22;43493;53.098;6.064;2023-02-19T12:53:52;9.20;99.90
57664;DHT22;43493;53.098;6.064;2023-02-19T12:56:28;9.20;99.90
57664;DHT22;43493;53.098;6.064;2023-02-19T13:01:57;9.30;99.90
57664;DHT22;43493;53.098;6.064;2023-02-19T13:09:42;9.30;99.90
57664;DHT22;43493;53.098;6.064;2023-02-19T13:12:18;9.40;99.90
57664;DHT22;43493;53.098;6.064;2023-02-19T13:14:54;9.40;99.90
57664;DHT22;43493;53.098;6.064;2023-02-19T13:17:35;9.30;99.90
57664;DHT22;43493;53.098;6.064;2023-02-19T13:20:14;9.30;99.90
57664;DHT22;43493;53.098;6.064;2023-02-19T13:23:00;9.30;99.90
57664;DHT22;43493;53.098;6.064;2023-02-19T13:29:15;9.20;99.90
57664;DHT22;43493;53.098;6.064;2023-02-19T13:36:59;9.10;99.90
57664;DHT22;43493;53.098;6.064;2023-02-19T13:39:25;9.10;99.90
57664;DHT22;43493;53.098;6.064;2023-02-19T13:41:54;9.10;99.90
57664;DHT22;43493;53.098;6.064;2023-02-19T13:44:39;9.10;99.90
57664;DHT22;43493;53.098;6.064;2023-02-19T13:47:45;9.10;99.90
57664;DHT22;43493;53.098;6.064;2023-02-19T13:50:21;9.10;99.90
57664;DHT22;43493;53.098;6.064;2023-02-19T13:52:47;9.10;99.90
57664;DHT22;43493;53.098;6.064;2023-02-19T13:55:50;9.10;99.90
57664;DHT22;43493;53.098;6.064;2023-02-19T14:01:15;9.10;99.90
57664;DHT22;43493;53.098;6.064;2023-02-19T14:04:08;9.10;99.90
57664;DHT22;43493;53.098;6.064;2023-02-19T14:14:55;9.00;99.90
57664;DHT22;43493;53.098;6.064;2023-02-19T14:17:40;9.00;99.90
57664;DHT22;43493;53.098;6.064;2023-02-19T14:25:37;8.90;99.90
57664;DHT22;43493;53.098;6.064;2023-02-19T14:28:15;8.90;99.90
57664;DHT22;43493;53.098;6.064;2023-02-19T14:33:29;9.00;99.90
57664;DHT22;43493;53.098;6.064;2023-02-19T14:39:01;9.00;99.90
57664;DHT22;43493;53.098;6.064;2023-02-19T14:41:31;9.10;99.90
57664;DHT22;43493;53.098;6.064;2023-02-19T14:43:59;9.10;99.90
57664;DHT22;43493;53.098;6.064;2023-02-19T14:46:47;9.10;99.90
57664;DHT22;43493;53.098;6.064;2023-02-19T14:49:20;9.10;99.90
57664;DHT22;43493;53.098;6.064;2023-02-19T14:51:58;9.10;99.90
57664;DHT22;43493;53.098;6.064;2023-02-19T14:54:39;9.10;99.90
57664;DHT22;43493;53.098;6.064;2023-02-19T14:57:13;9.10;99.90
57664;DHT22;43493;53.098;6.064;2023-02-19T14:59:51;9.10;99.90
57664;DHT22;43493;53.098;6.064;2023-02-19T15:02:18;9.00;99.90
57664;DHT22;43493;53.098;6.064;2023-02-19T15:04:46;9.00;99.90
57664;DHT22;43493;53.098;6.064;2023-02-19T15:07:20;9.00;99.90
57664;DHT22;43493;53.098;6.064;2023-02-19T15:09:50;8.90;99.90
57664;DHT22;43493;53.098;6.064;2023-02-19T15:12:20;8.90;99.90
57664;DHT22;43493;53.098;6.064;2023-02-19T15:14:47;8.90;99.90
57664;DHT22;43493;53.098;6.064;2023-02-19T15:17:20;8.90;99.90
57664;DHT22;43493;53.098;6.064;2023-02-19T15:19:48;8.90;99.90
57664;DHT22;43493;53.098;6.064;2023-02-19T15:22:19;8.90;99.90
57664;DHT22;43493;53.098;6.064;2023-02-19T15:24:46;8.90;99.90
57664;DHT22;43493;53.098;6.064;2023-02-19T15:27:17;8.90;99.90
57664;DHT22;43493;53.098;6.064;2023-02-19T15:29:45;8.90;99.90
57664;DHT22;43493;53.098;6.064;2023-02-19T15:32:23;8.90;99.90
57664;DHT22;43493;53.098;6.064;2023-02-19T15:35:02;8.80;99.90
57664;DHT22;43493;53.098;6.064;2023-02-19T15:37:31;8.80;99.90
57664;DHT22;43493;53.098;6.064;2023-02-19T15:39:59;8.70;99.90
57664;DHT22;43493;53.098;6.064;2023-02-19T15:42:29;8.70;99.90
57664;DHT22;43493;53.098;6.064;2023-02-19T15:50:31;8.60;99.90
57664;DHT22;43493;53.098;6.064;2023-02-19T15:53:06;8.50;99.90
57664;DHT22;43493;53.098;6.064;2023-02-19T15:58:54;8.40;99.90
57664;DHT22;43493;53.098;6.064;2023-02-19T16:01:35;8.40;99.90
57664;DHT22;43493;53.098;6.064;2023-02-19T16:04:01;8.40;99.90
57664;DHT22;43493;53.098;6.064;2023-02-19T16:06:28;8.30;99.90
57664;DHT22;43493;53.098;6.064;2023-02-19T16:11:34;8.20;99.90
57664;DHT22;43493;53.098;6.064;2023-02-19T16:14:31;8.10;99.90
57664;DHT22;43493;53.098;6.064;2023-02-19T16:22:11;8.00;99.90
57664;DHT22;43493;53.098;6.064;2023-02-19T16:24:52;8.00;99.90
57664;DHT22;43493;53.098;6.064;2023-02-19T16:27:39;7.90;99.90
57664;DHT22;43493;53.098;6.064;2023-02-19T16:30:29;7.90;99.90
57664;DHT22;43493;53.098;6.064;2023-02-19T16:33:18;7.90;99.90
57664;DHT22;43493;53.098;6.064;2023-02-19T16:35:48;7.80;99.90
57664;DHT22;43493;53.098;6.064;2023-02-19T16:38:17;7.80;99.90
57664;DHT22;43493;53.098;6.064;2023-02-19T16:43:39;7.70;99.90
57664;DHT22;43493;53.098;6.064;2023-02-19T16:46:08;7.70;99.90
57664;DHT22;43493;53.098;6.064;2023-02-19T16:48:35;7.70;99.90
57664;DHT22;43493;53.098;6.064;2023-02-19T16:51:01;7.70;99.90
57664;DHT22;43493;53.098;6.064;2023-02-19T16:53:27;7.60;99.90
57664;DHT22;43493;53.098;6.064;2023-02-19T16:55:54;7.70;99.90
57664;DHT22;43493;53.098;6.064;2023-02-19T16:58:19;7.60;99.90
57664;DHT22;43493;53.098;6.064;2023-02-19T17:00:46;7.60;99.90
57664;DHT22;43493;53.098;6.064;2023-02-19T17:03:17;7.60;99.90
57664;DHT22;43493;53.098;6.064;2023-02-19T17:05:44;7.60;99.90
57664;DHT22;43493;53.098;6.064;2023-02-19T17:08:30;7.50;99.90
57664;DHT22;43493;53.098;6.064;2023-02-19T17:10:58;7.50;99.90
57664;DHT22;43493;53.098;6.064;2023-02-19T17:13:25;7.50;99.90
57664;DHT22;43493;53.098;6.064;2023-02-19T17:15:51;7.50;99.90
57664;DHT22;43493;53.098;6.064;2023-02-19T17:18:16;7.40;99.90
57664;DHT22;43493;53.098;6.064;2023-02-19T17:20:46;7.40;99.90
57664;DHT22;43493;53.098;6.064;2023-02-19T17:23:14;7.50;99.90
57664;DHT22;43493;53.098;6.064;2023-02-19T17:25:40;7.40;99.90
57664;DHT22;43493;53.098;6.064;2023-02-19T17:28:05;7.50;99.90
57664;DHT22;43493;53.098;6.064;2023-02-19T17:30:32;7.40;99.90
57664;DHT22;43493;53.098;6.064;2023-02-19T17:32:58;7.50;99.90
57664;DHT22;43493;53.098;6.064;2023-02-19T17:35:24;7.40;99.90
57664;DHT22;43493;53.098;6.064;2023-02-19T17:37:50;7.40;99.90
57664;DHT22;43493;53.098;6.064;2023-02-19T17:40:30;7.40;99.90
57664;DHT22;43493;53.098;6.064;2023-02-19T17:42:56;7.40;99.90
57664;DHT22;43493;53.098;6.064;2023-02-19T17:45:22;7.30;99.90
57664;DHT22;43493;53.098;6.064;2023-02-19T17:47:49;7.40;99.90
57664;DHT22;43493;53.098;6.064;2023-02-19T17:50:20;7.30;99.90
57664;DHT22;43493;53.098;6.064;2023-02-19T17:52:46;7.30;99.90
57664;DHT22;43493;53.098;6.064;2023-02-19T17:55:13;7.30;99.90
57664;DHT22;43493;53.098;6.064;2023-02-19T17:57:45;7.30;99.90
57664;DHT22;43493;53.098;6.064;2023-02-19T18:00:14;7.30;99.90
57664;DHT22;43493;53.098;6.064;2023-02-19T18:02:40;7.20;99.90
57664;DHT22;43493;53.098;6.064;2023-02-19T18:05:06;7.20;99.90
57664;DHT22;43493;53.098;6.064;2023-02-19T18:07:31;7.20;99.90
57664;DHT22;43493;53.098;6.064;2023-02-19T18:09:57;7.20;99.90
57664;DHT22;43493;53.098;6.064;2023-02-19T18:12:23;7.20;99.90
57664;DHT22;43493;53.098;6.064;2023-02-19T18:14:51;7.20;99.90
57664;DHT22;43493;53.098;6.064;2023-02-19T18:17:19;7.20;99.90
57664;DHT22;43493;53.098;6.064;2023-02-19T18:19:45;7.20;99.90
57664;DHT22;43493;53.098;6.064;2023-02-19T18:22:10;7.20;99.90
57664;DHT22;43493;53.098;6.064;2023-02-19T18:24:37;7.20;99.90
57664;DHT22;43493;53.098;6.064;2023-02-19T18:27:03;7.20;99.90
57664;DHT22;43493;53.098;6.064;2023-02-19T18:29:28;7.20;99.90
57664;DHT22;43493;53.098;6.064;2023-02-19T18:31:55;7.20;99.90